Time;durP1;ratioP1;P1;durP2;ratioP2;P2;SDS_P1;SDS_P2;PMS_P1;PMS_P2;Temp;Humidity;BMP_temperature;BMP_pressure;BME280_temperature;BME280_humidity;BME280_pressure;Samples;Min_cycle;Max_cycle;Signal;HPM_P1;HPM_P2
2022/03/10 00:01:16;;;;;;;5.97;3.53;;;;;;;1.45;68.26;102207.34;5074777;28;20032;-65
2022/03/10 00:03:42;;;;;;;6.63;4.00;;;;;;;1.45;68.43;102208.22;5057995;28;20036;-65
2022/03/10 00:06:08;;;;;;;6.88;3.58;;;;;;;1.41;68.42;102210.63;5036348;28;20459;-64
2022/03/10 00:08:33;;;;;;;7.63;3.88;;;;;;;1.39;68.52;102213.13;5056142;28;20488;-64
2022/03/10 00:10:59;;;;;;;7.13;4.05;;;;;;;1.40;68.37;102216.63;5055697;28;20041;-64
2022/03/10 00:13:26;;;;;;;7.72;4.47;;;;;;;1.34;68.76;102219.81;5054887;28;20036;-64
2022/03/10 00:15:52;;;;;;;7.60;4.15;;;;;;;1.30;68.53;102217.88;5055504;28;20132;-64
2022/03/10 00:18:17;;;;;;;10.35;4.38;;;;;;;1.32;68.58;102215.38;5055826;28;20448;-64
2022/03/10 00:20:43;;;;;;;6.43;3.88;;;;;;;1.34;68.61;102219.81;5069122;28;20039;-64
2022/03/10 00:23:08;;;;;;;6.93;3.90;;;;;;;1.32;68.64;102220.56;5076045;28;20036;-64
2022/03/10 00:25:33;;;;;;;6.72;3.97;;;;;;;1.21;68.69;102225.25;5061702;28;20064;-64
2022/03/10 00:27:59;;;;;;;5.97;3.47;;;;;;;1.21;68.53;102223.53;5056494;28;20033;-64
2022/03/10 00:30:24;;;;;;;6.88;3.60;;;;;;;1.27;68.63;102222.03;5055549;28;20461;-65
2022/03/10 00:32:51;;;;;;;6.72;3.97;;;;;;;1.27;68.45;102225.50;5059949;28;20036;-64
2022/03/10 00:35:22;;;;;;;5.95;3.67;;;;;;;1.29;68.52;102241.16;5074365;28;20044;-65
2022/03/10 00:37:48;;;;;;;6.88;4.10;;;;;;;1.28;68.47;102239.34;5070527;28;20102;-64
2022/03/10 00:40:15;;;;;;;6.57;3.85;;;;;;;1.25;68.48;102244.41;5054036;28;20056;-64
2022/03/10 00:42:42;;;;;;;5.28;3.42;;;;;;;1.23;68.66;102246.91;5046648;28;20040;-64
2022/03/10 00:45:08;;;;;;;6.15;3.50;;;;;;;1.20;68.60;102244.19;5068772;28;20033;-64
2022/03/10 00:47:35;;;;;;;6.78;4.07;;;;;;;1.15;68.79;102249.16;5064550;28;20123;-64
2022/03/10 00:50:01;;;;;;;5.32;3.42;;;;;;;1.16;68.60;102255.25;5074072;28;20036;-64
2022/03/10 00:52:27;;;;;;;8.45;4.00;;;;;;;1.14;68.80;102267.22;5061831;28;20059;-64
2022/03/10 00:54:53;;;;;;;5.53;3.53;;;;;;;1.08;68.81;102257.47;5068800;28;20036;-64
2022/03/10 00:57:18;;;;;;;6.65;4.32;;;;;;;1.05;68.92;102266.78;5056551;28;20044;-64
2022/03/10 00:59:43;;;;;;;7.60;4.35;;;;;;;0.94;69.05;102264.56;5073189;28;20040;-64
2022/03/10 01:02:09;;;;;;;7.05;3.83;;;;;;;0.94;69.30;102264.56;5064948;28;20448;-65
2022/03/10 01:04:34;;;;;;;6.10;3.67;;;;;;;0.94;69.10;102264.56;5057481;28;20036;-64
2022/03/10 01:07:00;;;;;;;6.65;3.83;;;;;;;0.90;69.18;102269.53;5070079;28;20036;-64
2022/03/10 01:09:26;;;;;;;6.00;4.00;;;;;;;0.92;69.09;102270.50;5053651;28;20159;-64
2022/03/10 01:11:52;;;;;;;7.97;4.63;;;;;;;0.91;69.29;102273.88;5054864;28;20037;-64
2022/03/10 01:14:17;;;;;;;15.38;9.25;;;;;;;0.85;69.45;102276.19;5067744;28;20101;-64
2022/03/10 01:16:43;;;;;;;22.45;12.32;;;;;;;0.86;69.29;102275.38;5059720;28;20479;-64
2022/03/10 01:19:10;;;;;;;19.33;11.80;;;;;;;0.89;69.24;102280.69;5054557;28;20037;-64
2022/03/10 01:21:35;;;;;;;16.65;10.65;;;;;;;0.89;69.33;102281.59;5068929;28;20036;-64
2022/03/10 01:24:01;;;;;;;13.30;8.48;;;;;;;0.88;69.29;102286.69;5064920;28;20040;-64
2022/03/10 01:26:26;;;;;;;13.18;8.52;;;;;;;0.78;69.27;102281.88;5054382;28;20087;-64
2022/03/10 01:28:52;;;;;;;9.98;6.60;;;;;;;0.65;69.72;102283.88;5054007;28;20041;-64
2022/03/10 01:31:17;;;;;;;8.57;4.75;;;;;;;0.58;70.03;102283.50;5054702;28;20033;-64
2022/03/10 01:33:43;;;;;;;8.55;4.68;;;;;;;0.54;70.35;102292.81;5055227;28;20396;-66
2022/03/10 01:36:08;;;;;;;7.47;4.35;;;;;;;0.48;70.45;102292.50;5054364;28;20473;-64
2022/03/10 01:38:39;;;;;;;6.32;3.65;;;;;;;0.47;70.43;102296.78;5058424;28;20043;-64
2022/03/10 01:41:05;;;;;;;5.93;3.50;;;;;;;0.48;70.35;102298.56;5064291;28;20048;-64
2022/03/10 01:43:30;;;;;;;6.93;3.78;;;;;;;0.48;70.68;102300.28;5054710;28;20037;-64
2022/03/10 01:45:57;;;;;;;8.85;4.07;;;;;;;0.42;70.60;102305.13;5054086;28;20028;-64
2022/03/10 01:48:23;;;;;;;6.53;3.80;;;;;;;0.39;70.31;102305.84;5062274;28;20036;-64
2022/03/10 01:50:48;;;;;;;6.80;4.13;;;;;;;0.28;70.66;102319.03;5070505;28;20380;-65
2022/03/10 01:53:14;;;;;;;6.50;3.85;;;;;;;0.22;70.78;102314.47;5058998;28;20045;-64
2022/03/10 01:55:40;;;;;;;7.97;5.05;;;;;;;0.17;71.06;102319.41;5063112;28;20036;-64
2022/03/10 01:58:05;;;;;;;9.80;5.15;;;;;;;0.13;71.38;102319.16;5073930;28;20031;-64
2022/03/10 02:00:31;;;;;;;7.90;4.57;;;;;;;0.10;71.37;102319.88;5072074;28;20043;-64
2022/03/10 02:02:56;;;;;;;5.72;3.72;;;;;;;0.08;71.49;102326.69;5073586;28;20028;-64
2022/03/10 02:05:22;;;;;;;7.72;4.70;;;;;;;0.04;71.50;102324.75;5041483;28;20477;-64
2022/03/10 02:10:35;;;;;;;8.15;4.63;;;;;;;-0.01;71.86;102327.06;5061302;28;20462;-64
2022/03/10 02:13:00;;;;;;;7.40;4.18;;;;;;;0.01;71.58;102328.88;5072616;28;20060;-64
2022/03/10 02:18:12;;;;;;;9.02;5.20;;;;;;;-0.08;71.72;102331.84;5072019;28;20166;-64
2022/03/10 02:20:39;;;;;;;9.25;5.72;;;;;;;-0.13;72.12;102331.59;5072581;28;20044;-64
2022/03/10 02:23:07;;;;;;;12.40;6.55;;;;;;;-0.09;72.18;102335.22;5072039;28;20039;-64
2022/03/10 02:25:34;;;;;;;9.65;5.43;;;;;;;0.06;71.39;102336.03;5070070;28;20043;-64
2022/03/10 02:27:59;;;;;;;8.68;5.20;;;;;;;0.13;71.21;102348.50;5035508;28;20500;-65
2022/03/10 02:30:30;;;;;;;7.78;4.60;;;;;;;0.18;71.01;102351.31;5083826;28;20094;-64
2022/03/10 02:32:57;;;;;;;8.57;4.70;;;;;;;0.20;70.92;102360.00;5053570;28;20029;-64
2022/03/10 02:35:23;;;;;;;10.68;6.10;;;;;;;0.18;70.69;102359.94;5053419;28;20037;-65
2022/03/10 02:37:48;;;;;;;8.32;4.93;;;;;;;0.20;70.73;102360.00;5053192;28;20439;-65
2022/03/10 02:40:14;;;;;;;13.05;6.63;;;;;;;0.19;70.58;102356.53;5054414;28;20323;-65
2022/03/10 02:42:40;;;;;;;9.10;5.88;;;;;;;0.12;71.04;102353.56;5069667;28;20051;-65
2022/03/10 02:45:06;;;;;;;8.52;4.82;;;;;;;0.12;71.01;102349.31;5072865;28;20048;-64
2022/03/10 02:47:32;;;;;;;8.98;5.28;;;;;;;0.09;71.02;102363.75;5034878;28;20090;-65
2022/03/10 02:49:59;;;;;;;9.05;5.20;;;;;;;0.02;71.06;102357.38;5068907;28;20052;-65
2022/03/10 02:52:26;;;;;;;8.52;4.78;;;;;;;0.07;71.06;102368.84;5064590;28;20060;-64
2022/03/10 02:54:52;;;;;;;9.73;5.35;;;;;;;0.04;71.00;102365.19;5053635;28;20380;-64
2022/03/10 02:57:17;;;;;;;14.95;7.57;;;;;;;0.06;70.89;102369.66;5055291;28;20040;-65
2022/03/10 02:59:43;;;;;;;19.85;10.85;;;;;;;-0.02;71.28;102373.53;5053605;28;20116;-65
2022/03/10 03:02:09;;;;;;;90.28;38.92;;;;;;;-0.05;71.14;102370.78;5057022;28;20048;-64
2022/03/10 03:04:35;;;;;;;79.43;32.55;;;;;;;-0.10;71.14;102374.81;5050359;28;20033;-65
2022/03/10 03:07:01;;;;;;;105.47;39.45;;;;;;;-0.09;71.34;102369.72;5067894;28;20036;-65
2022/03/10 03:09:27;;;;;;;66.30;30.80;;;;;;;-0.15;71.06;102377.16;5083336;28;20037;-64
2022/03/10 03:11:52;;;;;;;57.03;27.05;;;;;;;-0.34;71.89;102371.81;5069164;28;20059;-64
2022/03/10 03:14:22;;;;;;;51.42;24.20;;;;;;;-0.41;72.09;102382.59;5066362;28;20044;-64
2022/03/10 03:16:49;;;;;;;50.83;26.70;;;;;;;-0.49;72.27;102374.44;5072154;28;20115;-64
2022/03/10 03:19:15;;;;;;;38.60;20.60;;;;;;;-0.59;72.70;102375.63;5057482;28;20052;-64
2022/03/10 03:21:40;;;;;;;37.05;20.77;;;;;;;-0.39;71.98;102384.47;5053163;28;20392;-64
2022/03/10 03:24:06;;;;;;;31.60;17.15;;;;;;;-0.43;71.81;102387.69;5053294;28;20045;-64
2022/03/10 03:26:31;;;;;;;25.83;15.57;;;;;;;-0.45;71.90;102394.44;5053865;28;20116;-64
2022/03/10 03:28:56;;;;;;;24.27;14.80;;;;;;;-0.44;71.92;102392.75;5052862;28;20041;-64
2022/03/10 03:31:22;;;;;;;20.45;12.40;;;;;;;-0.47;72.23;102390.03;5053810;28;20069;-64
2022/03/10 03:33:50;;;;;;;35.17;19.05;;;;;;;-0.45;71.93;102393.56;5053660;28;20037;-65
2022/03/10 03:36:15;;;;;;;31.30;18.60;;;;;;;-0.41;71.99;102400.69;5052825;28;20468;-64
2022/03/10 03:38:43;;;;;;;59.55;33.55;;;;;;;-0.43;72.01;102398.03;5054285;28;20091;-64
2022/03/10 03:41:09;;;;;;;47.13;27.13;;;;;;;-0.45;72.04;102407.38;5067318;28;20041;-64
2022/03/10 03:43:34;;;;;;;40.58;23.17;;;;;;;-0.47;72.22;102410.69;5038725;28;20373;-64
2022/03/10 03:46:00;;;;;;;36.70;20.00;;;;;;;-0.46;72.17;102413.34;5055493;28;20124;-65
2022/03/10 03:48:25;;;;;;;22.48;13.63;;;;;;;-0.41;71.88;102411.91;5057471;28;20369;-64
2022/03/10 03:50:51;;;;;;;13.57;8.90;;;;;;;-0.41;71.80;102417.06;5061954;28;20131;-64
2022/03/10 03:53:17;;;;;;;14.80;7.95;;;;;;;-0.47;72.15;102419.31;5064759;28;20045;-64
2022/03/10 03:55:42;;;;;;;12.45;6.85;;;;;;;-0.46;72.08;102413.34;5058090;28;20029;-65
2022/03/10 03:58:08;;;;;;;11.18;6.70;;;;;;;-0.41;72.06;102419.63;5057495;28;20422;-65
2022/03/10 04:00:36;;;;;;;14.57;7.65;;;;;;;-0.43;72.00;102428.13;5074193;28;20050;-65
2022/03/10 04:03:12;;;;;;;15.95;7.78;;;;;;;-0.41;71.97;102422.22;5070881;28;20033;-65
2022/03/10 04:05:38;;;;;;;13.23;7.40;;;;;;;-0.46;71.84;102422.78;5054954;28;20044;-65
2022/03/10 04:08:05;;;;;;;10.48;6.32;;;;;;;-0.38;71.77;102430.16;5055917;28;20033;-65
2022/03/10 04:10:31;;;;;;;13.05;6.63;;;;;;;-0.43;71.76;102435.88;5038221;28;20504;-64
2022/03/10 04:12:57;;;;;;;17.10;7.82;;;;;;;-0.45;71.57;102450.38;5088199;28;20075;-65
2022/03/10 04:15:23;;;;;;;21.67;9.50;;;;;;;-0.50;71.63;102447.56;5056836;28;20037;-64
2022/03/10 04:17:48;;;;;;;18.08;8.98;;;;;;;-0.54;71.81;102450.75;5056180;28;20438;-64
2022/03/10 04:20:14;;;;;;;17.70;7.72;;;;;;;-0.55;71.91;102456.75;5071381;28;20531;-65
2022/03/10 04:22:40;;;;;;;14.50;6.90;;;;;;;-0.57;71.80;102453.16;5075581;28;20036;-65
2022/03/10 04:25:08;;;;;;;10.93;6.15;;;;;;;-0.63;71.88;102455.41;5040160;28;20136;-64
2022/03/10 04:27:34;;;;;;;9.60;5.22;;;;;;;-0.75;72.66;102464.25;5055191;28;20037;-64
2022/03/10 04:29:59;;;;;;;13.38;6.45;;;;;;;-0.78;72.73;102460.59;5087173;28;20044;-64
2022/03/10 04:32:25;;;;;;;10.80;6.03;;;;;;;-0.77;72.54;102462.34;5056319;28;20045;-64
2022/03/10 04:34:50;;;;;;;9.85;5.63;;;;;;;-0.78;72.32;102469.22;5055539;28;20040;-64
2022/03/10 04:37:16;;;;;;;16.65;8.80;;;;;;;-0.80;72.43;102473.41;5067729;28;20491;-64
2022/03/10 04:39:42;;;;;;;15.27;9.43;;;;;;;-0.80;72.17;102473.41;5074266;28;20043;-64
2022/03/10 04:42:07;;;;;;;17.27;8.88;;;;;;;-0.86;72.04;102473.03;5062483;28;20040;-64
2022/03/10 04:44:32;;;;;;;15.50;8.15;;;;;;;-0.92;72.51;102477.84;5054177;28;20051;-65
2022/03/10 04:46:58;;;;;;;12.45;7.25;;;;;;;-1.01;72.71;102478.19;5059220;28;20048;-65
2022/03/10 04:49:24;;;;;;;10.90;6.43;;;;;;;-1.00;72.71;102484.25;5056356;28;20134;-64
2022/03/10 04:51:49;;;;;;;11.18;7.05;;;;;;;-1.07;72.62;102487.28;5068701;28;20056;-64
2022/03/10 04:54:15;;;;;;;13.13;7.22;;;;;;;-1.07;72.73;102483.00;5075530;28;20036;-64
2022/03/10 04:56:40;;;;;;;13.45;7.40;;;;;;;-1.11;72.64;102487.91;5062348;28;20032;-65
2022/03/10 04:59:06;;;;;;;14.95;8.15;;;;;;;-1.09;72.89;102499.19;5054998;28;20064;-65
2022/03/10 05:01:31;;;;;;;12.93;7.25;;;;;;;-1.07;72.43;102502.78;5064071;28;20469;-65
2022/03/10 05:03:57;;;;;;;13.10;7.35;;;;;;;-1.13;72.80;102500.69;5074996;28;20388;-65
2022/03/10 05:06:22;;;;;;;21.42;11.88;;;;;;;-1.20;72.37;102505.41;5072781;28;20029;-65
2022/03/10 05:08:48;;;;;;;27.45;13.38;;;;;;;-1.25;72.64;102513.75;5054498;28;20123;-65
2022/03/10 05:11:14;;;;;;;36.92;19.17;;;;;;;-1.22;72.95;102514.75;5062277;28;20047;-65
2022/03/10 05:13:39;;;;;;;49.85;22.38;;;;;;;-1.26;72.69;102524.88;5074883;28;20059;-64
2022/03/10 05:16:05;;;;;;;65.35;28.17;;;;;;;-1.27;72.99;102524.78;5072693;28;20041;-63
2022/03/10 05:18:31;;;;;;;61.72;25.70;;;;;;;-1.23;73.00;102524.19;5063543;28;20029;-63
2022/03/10 05:20:56;;;;;;;54.20;22.75;;;;;;;-1.21;72.70;102521.69;5069142;28;20049;-63
2022/03/10 05:23:21;;;;;;;51.97;23.25;;;;;;;-1.14;72.50;102536.75;5054456;28;20040;-63
2022/03/10 05:25:48;;;;;;;54.03;23.63;;;;;;;-1.09;72.29;102535.31;5055509;28;20477;-64
2022/03/10 05:28:14;;;;;;;40.85;19.30;;;;;;;-1.09;72.10;102532.72;5053009;28;20035;-63
2022/03/10 05:30:45;;;;;;;34.70;17.85;;;;;;;-1.08;72.25;102543.16;5059155;28;20484;-63
2022/03/10 05:33:11;;;;;;;33.65;16.58;;;;;;;-0.99;71.71;102540.25;5069759;28;20555;-63
2022/03/10 05:35:37;;;;;;;32.97;18.02;;;;;;;-0.98;71.69;102544.59;5044044;28;20037;-63
2022/03/10 05:38:03;;;;;;;41.63;20.55;;;;;;;-0.94;71.43;102537.94;5054286;28;20084;-63
2022/03/10 05:40:29;;;;;;;51.13;23.98;;;;;;;-0.88;71.20;102536.56;5054026;28;20142;-62
2022/03/10 05:42:55;;;;;;;72.55;32.88;;;;;;;-0.84;71.34;102543.75;5052535;28;20067;-63
2022/03/10 05:45:21;;;;;;;54.10;27.00;;;;;;;-0.79;70.96;102544.88;5064775;28;20417;-63
2022/03/10 05:47:54;;;;;;;52.40;24.95;;;;;;;-0.73;70.84;102546.94;5068772;28;20029;-62
2022/03/10 05:50:20;;;;;;;55.53;25.52;;;;;;;-0.70;70.58;102557.44;5053594;28;20037;-63
2022/03/10 05:52:48;;;;;;;40.97;18.73;;;;;;;-0.63;70.49;102554.44;5059741;28;20032;-62
2022/03/10 05:55:15;;;;;;;23.88;14.18;;;;;;;-0.56;70.04;102561.72;5069738;28;20032;-63
2022/03/10 05:57:40;;;;;;;27.35;15.57;;;;;;;-0.46;69.87;102557.97;5052784;28;20041;-63
2022/03/10 06:00:07;;;;;;;22.95;12.48;;;;;;;-0.41;69.71;102568.56;5059541;28;20396;-63
2022/03/10 06:02:36;;;;;;;20.50;11.77;;;;;;;-0.27;69.11;102571.16;5085662;28;20064;-63
2022/03/10 06:05:03;;;;;;;19.60;10.20;;;;;;;-0.16;68.79;102568.28;5039673;28;20037;-63
2022/03/10 06:07:30;;;;;;;27.30;14.35;;;;;;;-0.07;68.50;102563.66;5054386;28;20476;-63
2022/03/10 06:09:56;;;;;;;25.73;13.65;;;;;;;-0.03;68.11;102569.06;5068137;28;20401;-63
2022/03/10 06:12:23;;;;;;;18.48;10.30;;;;;;;0.07;68.06;102577.31;5065198;28;20035;-63
2022/03/10 06:14:52;;;;;;;18.33;10.63;;;;;;;0.13;67.78;102583.75;5062777;28;20037;-63
2022/03/10 06:17:17;;;;;;;16.63;9.40;;;;;;;0.18;67.20;102586.59;5076593;28;20068;-63
2022/03/10 06:19:43;;;;;;;16.92;8.93;;;;;;;0.21;67.47;102587.66;5060332;28;20337;-64
2022/03/10 06:22:15;;;;;;;13.02;7.63;;;;;;;0.27;66.76;102601.72;5069328;28;20047;-64
2022/03/10 06:24:40;;;;;;;11.95;6.40;;;;;;;0.39;66.51;102599.81;5068586;28;20086;-64
2022/03/10 06:27:06;;;;;;;12.85;6.10;;;;;;;0.47;66.10;102602.00;5063795;28;20041;-64
2022/03/10 06:29:31;;;;;;;9.38;5.45;;;;;;;0.63;65.72;102613.19;5033480;28;20066;-65
2022/03/10 06:31:57;;;;;;;10.63;5.65;;;;;;;0.70;65.33;102612.72;5066885;28;20044;-64
2022/03/10 06:34:22;;;;;;;13.90;7.53;;;;;;;0.74;64.68;102618.13;5045436;28;20061;-64
2022/03/10 06:36:48;;;;;;;15.32;8.30;;;;;;;0.83;64.49;102627.19;5070226;28;20043;-64
2022/03/10 06:39:13;;;;;;;14.75;7.82;;;;;;;0.89;64.25;102622.38;5071621;28;20138;-64
2022/03/10 06:41:39;;;;;;;14.98;8.20;;;;;;;0.97;64.07;102632.31;5072060;28;20048;-63
2022/03/10 06:44:05;;;;;;;21.90;10.05;;;;;;;1.11;63.67;102633.03;5073158;28;20085;-64
2022/03/10 06:46:31;;;;;;;13.27;7.10;;;;;;;1.19;63.10;102628.25;5071033;28;20116;-64
2022/03/10 06:48:56;;;;;;;10.88;6.05;;;;;;;1.22;62.77;102631.00;5068031;28;20404;-64
2022/03/10 06:51:22;;;;;;;12.75;6.97;;;;;;;1.31;62.55;102635.78;5068920;28;20056;-64
2022/03/10 06:53:48;;;;;;;21.00;12.77;;;;;;;1.35;62.16;102640.31;5072509;28;20062;-64
2022/03/10 06:56:14;;;;;;;18.63;11.35;;;;;;;1.41;61.68;102632.88;5067524;28;20190;-65
2022/03/10 06:58:40;;;;;;;15.50;8.85;;;;;;;1.56;61.16;102636.25;5072516;28;20552;-64
2022/03/10 07:01:05;;;;;;;19.20;9.75;;;;;;;1.64;61.18;102641.81;5071241;28;20594;-64
2022/03/10 07:03:37;;;;;;;14.30;7.78;;;;;;;1.71;59.38;102651.66;5073002;28;20067;-64
2022/03/10 07:06:02;;;;;;;13.32;6.80;;;;;;;1.75;60.09;102652.72;5072468;28;20071;-65
2022/03/10 07:08:28;;;;;;;9.30;5.38;;;;;;;1.85;59.61;102644.59;5066327;28;20032;-64
2022/03/10 07:10:53;;;;;;;9.50;5.05;;;;;;;1.87;59.02;102646.44;5054495;28;20037;-65
2022/03/10 07:13:20;;;;;;;15.43;8.00;;;;;;;1.96;59.19;102654.69;5064737;28;20473;-64
2022/03/10 07:15:45;;;;;;;17.95;7.75;;;;;;;2.07;59.02;102656.91;5072926;28;20029;-64
2022/03/10 07:18:11;;;;;;;9.30;5.30;;;;;;;2.16;58.35;102663.44;5072482;28;20082;-65
2022/03/10 07:20:36;;;;;;;12.85;5.85;;;;;;;2.18;57.82;102663.50;5074168;28;20090;-65
2022/03/10 07:23:01;;;;;;;10.48;6.28;;;;;;;2.24;57.73;102666.44;5075944;28;20036;-65
2022/03/10 07:25:27;;;;;;;10.00;5.53;;;;;;;2.31;57.60;102662.41;5075940;28;20491;-65
2022/03/10 07:27:53;;;;;;;10.27;5.68;;;;;;;2.43;57.48;102657.78;5074036;28;20035;-65
2022/03/10 07:30:18;;;;;;;12.43;6.90;;;;;;;2.52;56.93;102658.25;5074528;28;20420;-66
2022/03/10 07:32:44;;;;;;;11.90;6.30;;;;;;;2.58;56.60;102663.72;5073844;28;20020;-65
2022/03/10 07:35:09;;;;;;;9.38;5.40;;;;;;;2.63;56.42;102662.25;5076011;28;20149;-63
2022/03/10 07:37:35;;;;;;;8.55;5.18;;;;;;;2.67;55.47;102666.78;5060924;28;20044;-64
2022/03/10 07:40:01;;;;;;;9.30;5.22;;;;;;;2.66;55.72;102664.97;5074944;28;20458;-66
2022/03/10 07:42:26;;;;;;;11.55;6.10;;;;;;;2.80;55.27;102670.81;5052708;28;20120;-64
2022/03/10 07:44:52;;;;;;;10.25;5.40;;;;;;;2.89;55.06;102666.03;5059295;28;20029;-64
2022/03/10 07:47:18;;;;;;;8.25;4.43;;;;;;;3.01;54.99;102670.91;5073534;28;20114;-64
2022/03/10 07:49:44;;;;;;;8.18;4.50;;;;;;;3.14;54.23;102669.75;5069581;28;20086;-65
2022/03/10 07:52:09;;;;;;;7.82;4.35;;;;;;;3.25;54.13;102667.66;5073249;28;20511;-63
2022/03/10 07:54:34;;;;;;;14.48;6.03;;;;;;;3.22;53.69;102673.59;5075319;28;20472;-64
2022/03/10 07:57:00;;;;;;;16.75;5.95;;;;;;;3.20;53.34;102667.44;5076438;28;20516;-64
2022/03/10 07:59:25;;;;;;;9.93;4.88;;;;;;;3.35;53.36;102664.63;5074746;28;20064;-63
2022/03/10 08:01:51;;;;;;;8.40;4.65;;;;;;;3.44;53.17;102672.84;5072959;28;20372;-64
2022/03/10 08:04:17;;;;;;;9.63;4.63;;;;;;;3.54;52.91;102669.81;5072306;28;20538;-64
2022/03/10 08:06:42;;;;;;;9.00;4.53;;;;;;;3.63;52.38;102672.84;5073949;28;20044;-64
2022/03/10 08:09:10;;;;;;;8.55;4.68;;;;;;;3.72;52.25;102674.03;5075785;28;20189;-64
2022/03/10 08:11:36;;;;;;;7.65;3.65;;;;;;;3.75;52.30;102669.88;5075620;28;20206;-63
2022/03/10 08:14:02;;;;;;;13.27;5.65;;;;;;;3.83;51.71;102675.38;5076059;28;20101;-63
2022/03/10 08:16:28;;;;;;;9.88;5.10;;;;;;;3.82;51.59;102676.19;5075646;28;20028;-64
2022/03/10 08:18:53;;;;;;;7.30;4.35;;;;;;;3.92;51.39;102674.06;5074434;28;20040;-63
2022/03/10 08:21:19;;;;;;;6.88;3.97;;;;;;;4.02;51.04;102670.13;5075384;28;20037;-64
2022/03/10 08:23:44;;;;;;;6.80;4.15;;;;;;;4.02;50.46;102675.31;5074651;28;20029;-63
2022/03/10 08:26:10;;;;;;;8.48;4.57;;;;;;;4.09;50.30;102677.34;5073467;28;20036;-63
2022/03/10 08:28:36;;;;;;;9.45;4.90;;;;;;;4.10;50.12;102688.66;5075165;28;20082;-64
2022/03/10 08:31:04;;;;;;;7.45;3.92;;;;;;;4.00;49.83;102676.09;5052265;28;20040;-63
2022/03/10 08:33:30;;;;;;;8.55;4.55;;;;;;;4.00;49.86;102677.00;5074048;28;20036;-63
2022/03/10 08:35:55;;;;;;;8.63;4.43;;;;;;;4.04;49.93;102665.88;5057079;28;20056;-64
2022/03/10 08:38:21;;;;;;;7.63;4.43;;;;;;;4.04;48.43;102673.69;5086377;28;20173;-65
2022/03/10 08:40:46;;;;;;;7.43;4.10;;;;;;;4.18;49.26;102677.72;5090132;28;20078;-64
2022/03/10 08:43:12;;;;;;;10.15;5.10;;;;;;;4.26;49.22;102682.38;5074575;28;20038;-63
2022/03/10 08:45:39;;;;;;;8.15;4.32;;;;;;;4.33;49.22;102682.69;5074931;28;20040;-63
2022/03/10 08:48:05;;;;;;;8.35;4.10;;;;;;;4.43;48.75;102681.34;5074021;28;20137;-63
2022/03/10 08:50:30;;;;;;;9.73;5.68;;;;;;;4.36;47.40;102682.81;5074193;28;20047;-63
2022/03/10 08:52:56;;;;;;;13.38;6.85;;;;;;;4.52;47.57;102688.63;5072825;28;20033;-63
2022/03/10 08:55:22;;;;;;;9.40;5.32;;;;;;;4.50;46.58;102682.47;5074095;28;20029;-63
2022/03/10 08:57:47;;;;;;;7.45;3.92;;;;;;;4.59;47.05;102678.53;5071896;28;20032;-63
2022/03/10 09:00:14;;;;;;;8.45;4.30;;;;;;;4.58;46.95;102684.53;5073622;28;20036;-64
2022/03/10 09:02:42;;;;;;;6.63;4.00;;;;;;;4.62;46.81;102675.13;5070044;28;20047;-63
2022/03/10 09:05:09;;;;;;;8.57;3.78;;;;;;;4.75;46.85;102671.28;5067093;28;20028;-64
2022/03/10 09:07:35;;;;;;;6.55;3.72;;;;;;;4.84;46.58;102666.44;5068229;28;20036;-63
2022/03/10 09:10:01;;;;;;;8.98;5.03;;;;;;;4.95;46.36;102672.97;5073308;28;20032;-63
2022/03/10 09:12:30;;;;;;;7.93;4.57;;;;;;;4.88;44.88;102663.13;5072719;28;20036;-63
2022/03/10 09:14:56;;;;;;;7.38;4.50;;;;;;;5.01;46.43;102673.19;5056640;28;20139;-63
2022/03/10 09:17:22;;;;;;;7.15;4.32;;;;;;;5.03;45.36;102661.09;5072934;28;20033;-63
2022/03/10 09:19:49;;;;;;;13.75;7.93;;;;;;;5.01;45.26;102660.16;5073611;28;20027;-63
2022/03/10 09:22:15;;;;;;;19.13;10.43;;;;;;;4.99;45.01;102666.13;5073126;28;20111;-64
2022/03/10 09:24:40;;;;;;;17.65;11.30;;;;;;;5.06;45.53;102666.41;5056134;28;20040;-64
2022/03/10 09:27:07;;;;;;;10.32;6.13;;;;;;;5.14;45.20;102662.38;5074181;28;20036;-63
2022/03/10 09:29:32;;;;;;;6.30;3.58;;;;;;;5.26;44.66;102671.47;5073137;28;20119;-64
2022/03/10 09:31:57;;;;;;;5.38;3.42;;;;;;;5.25;43.56;102675.81;5074168;28;20108;-64
2022/03/10 09:34:23;;;;;;;5.93;3.55;;;;;;;5.35;43.48;102674.44;5071557;28;20041;-63
2022/03/10 09:36:49;;;;;;;6.55;3.78;;;;;;;5.40;43.10;102670.25;5074187;28;20070;-63
2022/03/10 09:39:17;;;;;;;9.18;4.78;;;;;;;5.48;43.19;102674.03;5068175;28;20048;-64
2022/03/10 09:41:44;;;;;;;6.72;3.97;;;;;;;5.56;43.13;102675.19;5072254;28;20090;-64
2022/03/10 09:44:15;;;;;;;10.32;5.10;;;;;;;5.60;42.78;102670.97;5069947;28;20040;-64
2022/03/10 09:46:41;;;;;;;11.60;5.20;;;;;;;5.71;42.75;102669.63;5085748;28;20028;-64
2022/03/10 09:49:07;;;;;;;8.68;4.00;;;;;;;5.76;42.23;102675.88;5093088;28;20035;-63
2022/03/10 09:51:32;;;;;;;6.07;3.28;;;;;;;5.68;41.92;102679.94;5073622;28;20044;-64
2022/03/10 09:53:58;;;;;;;14.02;5.93;;;;;;;5.66;41.91;102676.38;5073865;28;20123;-64
2022/03/10 09:56:25;;;;;;;10.73;3.97;;;;;;;5.61;41.39;102685.78;5071148;28;20120;-64
2022/03/10 09:58:50;;;;;;;8.55;4.30;;;;;;;5.66;41.52;102679.91;5052202;28;20043;-64
2022/03/10 10:01:16;;;;;;;8.98;4.20;;;;;;;5.73;41.24;102680.09;5071982;28;20036;-65
2022/03/10 10:03:41;;;;;;;10.52;4.80;;;;;;;5.77;41.10;102682.00;5072190;28;20034;-64
2022/03/10 10:06:07;;;;;;;6.50;3.42;;;;;;;5.70;40.93;102678.28;5070022;28;20036;-64
2022/03/10 10:08:34;;;;;;;5.05;2.90;;;;;;;5.73;39.66;102685.31;5068181;28;20031;-64
2022/03/10 10:11:01;;;;;;;6.10;3.13;;;;;;;5.82;40.23;102683.91;5072014;28;20032;-64
2022/03/10 10:13:39;;;;;;;7.05;4.05;;;;;;;5.80;37.03;102683.00;5052002;28;20083;-64
2022/03/10 10:16:14;;;;;;;7.75;4.20;;;;;;;5.87;38.58;102678.88;5051938;28;20033;-64
2022/03/10 10:18:42;;;;;;;11.07;4.28;;;;;;;5.99;39.49;102681.06;5066555;28;20028;-64
2022/03/10 10:21:09;;;;;;;10.77;3.92;;;;;;;6.08;39.08;102679.63;5072772;28;20040;-64
2022/03/10 10:23:37;;;;;;;8.05;3.42;;;;;;;6.16;38.82;102685.09;5082436;28;20032;-64
2022/03/10 10:26:11;;;;;;;4.15;2.40;;;;;;;6.15;38.22;102692.06;5077302;28;20021;-64
2022/03/10 10:28:36;;;;;;;5.53;3.10;;;;;;;6.23;38.60;102680.97;5073159;28;20041;-64
2022/03/10 10:31:11;;;;;;;9.52;4.05;;;;;;;6.25;38.24;102687.13;5071832;28;20032;-64
2022/03/10 10:33:39;;;;;;;7.55;3.13;;;;;;;6.36;38.76;102683.16;5085624;28;20434;-64
2022/03/10 10:36:24;;;;;;;5.93;3.60;;;;;;;6.46;37.19;102687.81;5072088;28;20035;-64
2022/03/10 10:39:16;;;;;;;5.22;3.28;;;;;;;6.46;38.20;102681.69;5082896;28;20028;-64
2022/03/10 10:41:43;;;;;;;13.45;6.30;;;;;;;6.40;36.16;102675.44;5087983;28;20040;-64
2022/03/10 10:44:12;;;;;;;8.82;4.65;;;;;;;6.47;36.39;102675.66;5071849;28;20033;-64
2022/03/10 10:46:43;;;;;;;7.63;3.67;;;;;;;6.51;36.12;102681.03;5071998;28;20028;-64
2022/03/10 10:49:09;;;;;;;13.63;3.90;;;;;;;6.55;37.24;102677.66;5073075;28;20033;-64
2022/03/10 10:51:47;;;;;;;9.07;3.28;;;;;;;6.59;36.76;102674.31;5077681;28;20476;-64
2022/03/10 10:54:22;;;;;;;10.35;3.22;;;;;;;6.61;35.58;102677.84;5072581;28;20079;-64
2022/03/10 10:56:55;;;;;;;7.55;3.20;;;;;;;6.72;36.66;102677.31;5055990;28;20380;-64
2022/03/10 10:59:38;;;;;;;9.95;3.33;;;;;;;6.77;34.65;102673.09;5062900;28;20052;-64
2022/03/10 11:02:17;;;;;;;17.60;12.77;;;;;;;6.80;33.40;102670.59;5077101;28;20044;-64
2022/03/10 11:04:47;;;;;;;16.10;11.40;;;;;;;6.74;33.93;102675.59;5075933;28;20052;-64
2022/03/10 11:07:14;;;;;;;6.68;3.85;;;;;;;6.68;34.65;102676.31;5077085;28;20477;-64
2022/03/10 11:09:42;;;;;;;6.40;3.85;;;;;;;6.70;35.45;102677.25;5075918;28;20038;-64
2022/03/10 11:12:09;;;;;;;7.40;6.25;;;;;;;6.75;35.63;102677.41;5058761;28;20063;-64
2022/03/10 11:14:35;;;;;;;16.80;8.48;;;;;;;6.78;35.50;102674.84;5075810;28;20041;-64
2022/03/10 11:17:00;;;;;;;7.15;4.20;;;;;;;6.88;35.73;102666.47;5076591;28;20033;-63
2022/03/10 11:19:30;;;;;;;5.80;3.58;;;;;;;6.88;35.42;102669.09;5076854;28;20037;-63
2022/03/10 11:22:17;;;;;;;9.73;5.45;;;;;;;6.83;32.36;102668.06;5075502;28;20037;-63
2022/03/10 11:25:01;;;;;;;5.82;3.35;;;;;;;6.83;32.70;102668.06;5076376;28;20029;-63
2022/03/10 11:27:35;;;;;;;5.00;2.53;;;;;;;6.83;33.43;102668.06;5075333;28;20052;-63